sensor_id;sensor_type;location;lat;lon;timestamp;pressure;altitude;pressure_sealevel;temperature;humidity
74218;BME280;62579;47.288;18.646;2023-04-08T00:01:21;100036.69;;;4.99;93.43
74218;BME280;62579;47.288;18.646;2023-04-08T00:03:46;100041.19;;;4.93;93.96
74218;BME280;62579;47.288;18.646;2023-04-08T00:06:11;100043.72;;;4.97;93.67
74218;BME280;62579;47.288;18.646;2023-04-08T00:08:36;100033.97;;;4.99;93.73
74218;BME280;62579;47.288;18.646;2023-04-08T00:11:02;100031.72;;;5.07;93.57
74218;BME280;62579;47.288;18.646;2023-04-08T00:13:27;100032.75;;;5.09;93.55
74218;BME280;62579;47.288;18.646;2023-04-08T00:15:52;100035.94;;;4.99;94.27
74218;BME280;62579;47.288;18.646;2023-04-08T00:18:17;100038.28;;;5.06;94.21
74218;BME280;62579;47.288;18.646;2023-04-08T00:20:43;100036.81;;;5.05;93.96
74218;BME280;62579;47.288;18.646;2023-04-08T00:23:08;100036.19;;;5.10;93.47
74218;BME280;62579;47.288;18.646;2023-04-08T00:25:33;100035.78;;;5.02;94.16
74218;BME280;62579;47.288;18.646;2023-04-08T00:27:58;100040.87;;;5.00;94.15
74218;BME280;62579;47.288;18.646;2023-04-08T00:30:24;100042.06;;;4.90;94.53
74218;BME280;62579;47.288;18.646;2023-04-08T00:32:51;100044.31;;;5.01;94.56
74218;BME280;62579;47.288;18.646;2023-04-08T00:35:16;100051.34;;;4.98;94.37
74218;BME280;62579;47.288;18.646;2023-04-08T00:37:41;100049.44;;;4.71;95.36
74218;BME280;62579;47.288;18.646;2023-04-08T00:40:07;100055.28;;;4.79;95.27
74218;BME280;62579;47.288;18.646;2023-04-08T00:42:32;100047.66;;;4.87;95.07
74218;BME280;62579;47.288;18.646;2023-04-08T00:44:57;100055.13;;;4.82;95.16
74218;BME280;62579;47.288;18.646;2023-04-08T00:47:23;100051.81;;;4.97;94.79
74218;BME280;62579;47.288;18.646;2023-04-08T00:49:48;100068.31;;;4.80;95.23
74218;BME280;62579;47.288;18.646;2023-04-08T00:52:13;100062.31;;;4.85;94.93
74218;BME280;62579;47.288;18.646;2023-04-08T00:54:38;100064.56;;;4.87;94.97
74218;BME280;62579;47.288;18.646;2023-04-08T00:57:04;100062.00;;;5.02;94.42
74218;BME280;62579;47.288;18.646;2023-04-08T00:59:29;100061.13;;;4.77;95.30
74218;BME280;62579;47.288;18.646;2023-04-08T01:07:16;100059.75;;;4.91;94.83
74218;BME280;62579;47.288;18.646;2023-04-08T01:09:47;100062.62;;;4.78;95.19
74218;BME280;62579;47.288;18.646;2023-04-08T01:12:17;100060.84;;;4.75;95.92
74218;BME280;62579;47.288;18.646;2023-04-08T01:14:44;100050.63;;;4.79;96.04
74218;BME280;62579;47.288;18.646;2023-04-08T01:17:11;100053.19;;;4.74;96.03
74218;BME280;62579;47.288;18.646;2023-04-08T01:19:38;100055.44;;;4.75;96.24
74218;BME280;62579;47.288;18.646;2023-04-08T01:22:24;100050.19;;;4.63;96.85
74218;BME280;62579;47.288;18.646;2023-04-08T01:24:51;100051.09;;;4.69;96.59
74218;BME280;62579;47.288;18.646;2023-04-08T01:27:21;100048.69;;;4.71;96.44
74218;BME280;62579;47.288;18.646;2023-04-08T01:29:47;100060.81;;;4.84;96.42
74218;BME280;62579;47.288;18.646;2023-04-08T01:32:13;100049.16;;;4.78;96.57
74218;BME280;62579;47.288;18.646;2023-04-08T01:34:38;100053.94;;;4.74;96.57
74218;BME280;62579;47.288;18.646;2023-04-08T01:37:05;100047.31;;;4.84;96.14
74218;BME280;62579;47.288;18.646;2023-04-08T01:39:31;100053.78;;;4.69;96.87
74218;BME280;62579;47.288;18.646;2023-04-08T01:41:57;100052.91;;;4.81;96.20
74218;BME280;62579;47.288;18.646;2023-04-08T01:44:23;100052.91;;;4.72;96.57
74218;BME280;62579;47.288;18.646;2023-04-08T01:46:50;100055.28;;;4.79;96.31
74218;BME280;62579;47.288;18.646;2023-04-08T01:49:16;100048.22;;;4.81;96.06
74218;BME280;62579;47.288;18.646;2023-04-08T01:51:42;100049.88;;;4.79;96.37
74218;BME280;62579;47.288;18.646;2023-04-08T01:54:08;100052.00;;;4.84;95.96
74218;BME280;62579;47.288;18.646;2023-04-08T01:56:35;100050.66;;;4.70;96.50
74218;BME280;62579;47.288;18.646;2023-04-08T01:59:01;100043.00;;;4.69;96.87
74218;BME280;62579;47.288;18.646;2023-04-08T02:01:30;100038.50;;;4.75;96.51
74218;BME280;62579;47.288;18.646;2023-04-08T02:03:56;100042.84;;;4.63;96.80
74218;BME280;62579;47.288;18.646;2023-04-08T02:06:23;100046.75;;;4.71;96.79
74218;BME280;62579;47.288;18.646;2023-04-08T02:08:50;100053.66;;;4.63;96.88
74218;BME280;62579;47.288;18.646;2023-04-08T02:11:15;100039.25;;;4.57;97.62
74218;BME280;62579;47.288;18.646;2023-04-08T02:13:40;100050.66;;;4.61;97.45
74218;BME280;62579;47.288;18.646;2023-04-08T02:16:12;100047.06;;;4.55;97.63
74218;BME280;62579;47.288;18.646;2023-04-08T02:18:40;100053.03;;;4.68;97.25
74218;BME280;62579;47.288;18.646;2023-04-08T02:21:12;100047.19;;;4.61;97.38
74218;BME280;62579;47.288;18.646;2023-04-08T02:23:38;100045.56;;;4.63;97.41
74218;BME280;62579;47.288;18.646;2023-04-08T02:26:05;100041.53;;;4.68;97.13
74218;BME280;62579;47.288;18.646;2023-04-08T02:28:31;100050.19;;;4.72;97.21
74218;BME280;62579;47.288;18.646;2023-04-08T02:30:59;100052.75;;;4.66;97.54
74218;BME280;62579;47.288;18.646;2023-04-08T02:33:25;100052.00;;;4.75;97.12
74218;BME280;62579;47.288;18.646;2023-04-08T02:35:51;100055.28;;;4.79;96.79
74218;BME280;62579;47.288;18.646;2023-04-08T02:38:20;100054.53;;;4.69;97.32
74218;BME280;62579;47.288;18.646;2023-04-08T02:40:45;100046.31;;;4.64;98.06
74218;BME280;62579;47.288;18.646;2023-04-08T02:43:13;100046.12;;;4.76;97.24
74218;BME280;62579;47.288;18.646;2023-04-08T02:45:39;100054.09;;;4.71;97.48
74218;BME280;62579;47.288;18.646;2023-04-08T02:48:05;100058.75;;;4.61;98.22
74218;BME280;62579;47.288;18.646;2023-04-08T02:50:30;100048.69;;;4.71;97.45
74218;BME280;62579;47.288;18.646;2023-04-08T02:52:56;100046.78;;;4.62;97.69
74218;BME280;62579;47.288;18.646;2023-04-08T02:55:21;100054.72;;;4.57;97.90
74218;BME280;62579;47.288;18.646;2023-04-08T02:57:47;100050.50;;;4.56;97.62
74218;BME280;62579;47.288;18.646;2023-04-08T03:00:13;100048.41;;;4.60;97.69
74218;BME280;62579;47.288;18.646;2023-04-08T03:02:38;100049.31;;;4.57;97.38
74218;BME280;62579;47.288;18.646;2023-04-08T03:05:03;100051.56;;;4.58;97.46
74218;BME280;62579;47.288;18.646;2023-04-08T03:07:29;100052.16;;;4.62;97.48
74218;BME280;62579;47.288;18.646;2023-04-08T03:09:54;100056.19;;;4.67;97.36
74218;BME280;62579;47.288;18.646;2023-04-08T03:12:20;100054.22;;;4.76;96.94
74218;BME280;62579;47.288;18.646;2023-04-08T03:14:45;100055.13;;;4.73;97.01
74218;BME280;62579;47.288;18.646;2023-04-08T03:17:10;100056.06;;;4.70;96.81
74218;BME280;62579;47.288;18.646;2023-04-08T03:19:36;100057.25;;;4.51;97.71
74218;BME280;62579;47.288;18.646;2023-04-08T03:22:01;100068.94;;;4.48;97.96
74218;BME280;62579;47.288;18.646;2023-04-08T03:24:26;100058.44;;;4.68;97.23
74218;BME280;62579;47.288;18.646;2023-04-08T03:26:51;100058.00;;;4.70;96.64
74218;BME280;62579;47.288;18.646;2023-04-08T03:29:16;100062.94;;;4.71;96.63
74218;BME280;62579;47.288;18.646;2023-04-08T03:31:42;100063.38;;;4.61;97.07
74218;BME280;62579;47.288;18.646;2023-04-08T03:34:07;100062.47;;;4.64;97.35
74218;BME280;62579;47.288;18.646;2023-04-08T03:36:32;100063.22;;;4.73;96.64
74218;BME280;62579;47.288;18.646;2023-04-08T03:38:57;100064.56;;;4.69;97.06
74218;BME280;62579;47.288;18.646;2023-04-08T03:41:22;100066.81;;;4.61;97.28
74218;BME280;62579;47.288;18.646;2023-04-08T03:43:48;100059.94;;;4.51;97.47
74218;BME280;62579;47.288;18.646;2023-04-08T03:46:13;100070.13;;;4.38;98.43
74218;BME280;62579;47.288;18.646;2023-04-08T03:48:38;100067.56;;;4.35;98.79
74218;BME280;62579;47.288;18.646;2023-04-08T03:51:03;100072.81;;;4.38;98.94
74218;BME280;62579;47.288;18.646;2023-04-08T03:53:29;100077.75;;;4.40;99.26
74218;BME280;62579;47.288;18.646;2023-04-08T03:55:55;100070.25;;;4.53;98.81
74218;BME280;62579;47.288;18.646;2023-04-08T03:58:20;100087.50;;;4.46;98.74
74218;BME280;62579;47.288;18.646;2023-04-08T04:00:45;100075.06;;;4.40;98.94
74218;BME280;62579;47.288;18.646;2023-04-08T04:03:11;100078.38;;;4.44;98.68
74218;BME280;62579;47.288;18.646;2023-04-08T04:05:37;100082.38;;;4.30;99.68
74218;BME280;62579;47.288;18.646;2023-04-08T04:08:02;100081.63;;;4.30;99.75
74218;BME280;62579;47.288;18.646;2023-04-08T04:10:27;100092.53;;;4.26;100.00
74218;BME280;62579;47.288;18.646;2023-04-08T04:12:53;100093.00;;;4.24;100.00
74218;BME280;62579;47.288;18.646;2023-04-08T04:15:18;100091.34;;;4.27;100.00
74218;BME280;62579;47.288;18.646;2023-04-08T04:17:43;100095.84;;;4.30;100.00
74218;BME280;62579;47.288;18.646;2023-04-08T04:20:08;100091.94;;;4.22;100.00
74218;BME280;62579;47.288;18.646;2023-04-08T04:22:34;100096.41;;;4.25;100.00
74218;BME280;62579;47.288;18.646;2023-04-08T04:24:59;100098.56;;;4.30;100.00
74218;BME280;62579;47.288;18.646;2023-04-08T04:27:24;100091.50;;;4.42;99.47
74218;BME280;62579;47.288;18.646;2023-04-08T04:29:49;100104.81;;;4.27;100.00
74218;BME280;62579;47.288;18.646;2023-04-08T04:32:15;100103.62;;;4.37;99.64
74218;BME280;62579;47.288;18.646;2023-04-08T04:34:40;100101.81;;;4.16;100.00
74218;BME280;62579;47.288;18.646;2023-04-08T04:37:05;100108.53;;;4.11;100.00
74218;BME280;62579;47.288;18.646;2023-04-08T04:39:31;100113.59;;;4.09;100.00
74218;BME280;62579;47.288;18.646;2023-04-08T04:41:56;100100.31;;;4.15;100.00
74218;BME280;62579;47.288;18.646;2023-04-08T04:44:21;100115.59;;;4.27;99.89
74218;BME280;62579;47.288;18.646;2023-04-08T04:46:47;100109.59;;;4.23;100.00
74218;BME280;62579;47.288;18.646;2023-04-08T04:49:12;100110.66;;;4.16;100.00
74218;BME280;62579;47.288;18.646;2023-04-08T04:51:37;100106.91;;;4.14;100.00
74218;BME280;62579;47.288;18.646;2023-04-08T04:54:02;100112.44;;;4.19;100.00
74218;BME280;62579;47.288;18.646;2023-04-08T04:56:28;100117.09;;;4.19;100.00
74218;BME280;62579;47.288;18.646;2023-04-08T04:58:53;100112.84;;;4.00;100.00
74218;BME280;62579;47.288;18.646;2023-04-08T05:01:18;100114.31;;;4.01;100.00
74218;BME280;62579;47.288;18.646;2023-04-08T05:03:43;100114.50;;;4.06;100.00
74218;BME280;62579;47.288;18.646;2023-04-08T05:06:08;100114.66;;;4.12;100.00
74218;BME280;62579;47.288;18.646;2023-04-08T05:08:34;100120.78;;;4.12;100.00
74218;BME280;62579;47.288;18.646;2023-04-08T05:10:59;100115.41;;;4.12;100.00
74218;BME280;62579;47.288;18.646;2023-04-08T05:13:26;100122.19;;;4.26;100.00
74218;BME280;62579;47.288;18.646;2023-04-08T05:15:51;100122.94;;;4.27;100.00
74218;BME280;62579;47.288;18.646;2023-04-08T05:18:17;100129.25;;;4.33;100.00
74218;BME280;62579;47.288;18.646;2023-04-08T05:20:42;100121.00;;;4.27;100.00
74218;BME280;62579;47.288;18.646;2023-04-08T05:23:07;100130.56;;;4.19;100.00
74218;BME280;62579;47.288;18.646;2023-04-08T05:25:32;100130.09;;;4.20;100.00
74218;BME280;62579;47.288;18.646;2023-04-08T05:27:58;100124.44;;;4.28;100.00
74218;BME280;62579;47.288;18.646;2023-04-08T05:30:23;100137.31;;;4.42;100.00
74218;BME280;62579;47.288;18.646;2023-04-08T05:32:48;100134.59;;;4.23;100.00
74218;BME280;62579;47.288;18.646;2023-04-08T05:35:13;100138.22;;;4.30;100.00
74218;BME280;62579;47.288;18.646;2023-04-08T05:37:39;100139.72;;;4.40;100.00
74218;BME280;62579;47.288;18.646;2023-04-08T05:40:04;100140.75;;;4.33;100.00
74218;BME280;62579;47.288;18.646;2023-04-08T05:42:30;100143.91;;;4.32;100.00
74218;BME280;62579;47.288;18.646;2023-04-08T05:44:56;100145.19;;;4.18;100.00
74218;BME280;62579;47.288;18.646;2023-04-08T05:47:21;100144.94;;;4.34;100.00
74218;BME280;62579;47.288;18.646;2023-04-08T05:49:47;100147.94;;;4.36;100.00
74218;BME280;62579;47.288;18.646;2023-04-08T05:52:12;100148.69;;;4.37;100.00
74218;BME280;62579;47.288;18.646;2023-04-08T05:54:37;100151.72;;;4.48;100.00
74218;BME280;62579;47.288;18.646;2023-04-08T05:57:02;100151.50;;;4.33;99.83
74218;BME280;62579;47.288;18.646;2023-04-08T05:59:27;100146.00;;;4.37;100.00
74218;BME280;62579;47.288;18.646;2023-04-08T06:01:53;100150.94;;;4.47;99.77
74218;BME280;62579;47.288;18.646;2023-04-08T06:04:19;100152.59;;;4.45;99.86
74218;BME280;62579;47.288;18.646;2023-04-08T06:06:44;100156.34;;;4.38;99.89
74218;BME280;62579;47.288;18.646;2023-04-08T06:09:09;100154.56;;;4.53;99.42
74218;BME280;62579;47.288;18.646;2023-04-08T06:11:35;100156.66;;;4.58;99.03
74218;BME280;62579;47.288;18.646;2023-04-08T06:14:00;100160.72;;;4.54;99.27
74218;BME280;62579;47.288;18.646;2023-04-08T06:16:25;100160.72;;;4.54;99.27
74218;BME280;62579;47.288;18.646;2023-04-08T06:18:50;100159.66;;;4.51;99.20
74218;BME280;62579;47.288;18.646;2023-04-08T06:21:16;100158.00;;;4.63;99.08
74218;BME280;62579;47.288;18.646;2023-04-08T06:23:41;100161.47;;;4.63;99.29
74218;BME280;62579;47.288;18.646;2023-04-08T06:26:06;100165.94;;;4.57;99.29
74218;BME280;62579;47.288;18.646;2023-04-08T06:28:32;100161.91;;;4.62;98.84
74218;BME280;62579;47.288;18.646;2023-04-08T06:30:57;100156.06;;;4.63;99.37
74218;BME280;62579;47.288;18.646;2023-04-08T06:33:23;100166.56;;;4.61;99.57
74218;BME280;62579;47.288;18.646;2023-04-08T06:35:48;100161.16;;;4.61;99.51
74218;BME280;62579;47.288;18.646;2023-04-08T06:38:13;100163.13;;;4.70;99.06
74218;BME280;62579;47.288;18.646;2023-04-08T06:40:38;100165.38;;;4.71;98.60
74218;BME280;62579;47.288;18.646;2023-04-08T06:43:04;100163.13;;;4.79;98.42
74218;BME280;62579;47.288;18.646;2023-04-08T06:45:31;100168.34;;;4.64;98.31
74218;BME280;62579;47.288;18.646;2023-04-08T06:47:56;100173.44;;;4.71;98.47
74218;BME280;62579;47.288;18.646;2023-04-08T06:50:21;100168.97;;;4.77;98.17
74218;BME280;62579;47.288;18.646;2023-04-08T06:52:46;100178.84;;;4.71;98.93
74218;BME280;62579;47.288;18.646;2023-04-08T06:55:12;100184.34;;;4.50;99.82
74218;BME280;62579;47.288;18.646;2023-04-08T06:57:37;100181.84;;;4.64;99.60
74218;BME280;62579;47.288;18.646;2023-04-08T07:00:02;100184.81;;;4.66;99.01
74218;BME280;62579;47.288;18.646;2023-04-08T07:02:28;100188.25;;;4.58;99.58
74218;BME280;62579;47.288;18.646;2023-04-08T07:04:53;100198.34;;;4.75;98.91
74218;BME280;62579;47.288;18.646;2023-04-08T07:07:18;100193.69;;;4.76;98.70
74218;BME280;62579;47.288;18.646;2023-04-08T07:09:43;100193.06;;;4.72;98.96
74218;BME280;62579;47.288;18.646;2023-04-08T07:12:11;100188.31;;;4.76;99.52
74218;BME280;62579;47.288;18.646;2023-04-08T07:14:36;100190.72;;;4.92;98.98
74218;BME280;62579;47.288;18.646;2023-04-08T07:17:01;100199.09;;;4.85;99.00
74218;BME280;62579;47.288;18.646;2023-04-08T07:19:29;100190.84;;;4.98;98.22
74218;BME280;62579;47.288;18.646;2023-04-08T07:21:54;100194.62;;;5.00;98.36
74218;BME280;62579;47.288;18.646;2023-04-08T07:24:20;100197.75;;;5.08;98.38
74218;BME280;62579;47.288;18.646;2023-04-08T07:26:45;100199.69;;;5.07;97.71
74218;BME280;62579;47.288;18.646;2023-04-08T07:29:11;100206.44;;;5.03;97.80
74218;BME280;62579;47.288;18.646;2023-04-08T07:31:37;100204.78;;;5.14;97.67
74218;BME280;62579;47.288;18.646;2023-04-08T07:34:02;100208.53;;;5.17;95.77
74218;BME280;62579;47.288;18.646;2023-04-08T07:36:27;100219.16;;;5.11;96.79
74218;BME280;62579;47.288;18.646;2023-04-08T07:38:52;100211.22;;;4.99;95.76
74218;BME280;62579;47.288;18.646;2023-04-08T07:41:18;100219.16;;;4.84;96.19
74218;BME280;62579;47.288;18.646;2023-04-08T07:43:43;100217.81;;;4.89;96.92
74218;BME280;62579;47.288;18.646;2023-04-08T07:46:08;100222.94;;;5.05;96.53
74218;BME280;62579;47.288;18.646;2023-04-08T07:48:33;100221.44;;;5.13;96.29
74218;BME280;62579;47.288;18.646;2023-04-08T07:51:02;100232.06;;;4.98;96.69
74218;BME280;62579;47.288;18.646;2023-04-08T07:53:28;100228.91;;;4.91;97.49
74218;BME280;62579;47.288;18.646;2023-04-08T07:55:54;100231.31;;;4.89;97.57
74218;BME280;62579;47.288;18.646;2023-04-08T07:58:19;100234.00;;;4.98;96.87
74218;BME280;62579;47.288;18.646;2023-04-08T08:00:44;100233.09;;;4.92;96.46
74218;BME280;62579;47.288;18.646;2023-04-08T08:03:09;100234.91;;;4.95;96.87
74218;BME280;62579;47.288;18.646;2023-04-08T08:05:35;100236.56;;;5.01;96.70
74218;BME280;62579;47.288;18.646;2023-04-08T08:08:01;100238.50;;;5.01;96.39
74218;BME280;62579;47.288;18.646;2023-04-08T08:10:26;100241.06;;;5.04;96.15
74218;BME280;62579;47.288;18.646;2023-04-08T08:12:52;100241.19;;;4.92;96.59
74218;BME280;62579;47.288;18.646;2023-04-08T08:15:17;100246.87;;;4.84;96.55
74218;BME280;62579;47.288;18.646;2023-04-08T08:17:42;100247.03;;;4.81;97.11
74218;BME280;62579;47.288;18.646;2023-04-08T08:20:08;100253.16;;;4.81;98.29
74218;BME280;62579;47.288;18.646;2023-04-08T08:22:34;100254.34;;;4.90;98.48
74218;BME280;62579;47.288;18.646;2023-04-08T08:24:59;100256.72;;;4.69;98.39
74218;BME280;62579;47.288;18.646;2023-04-08T08:27:24;100260.63;;;4.77;98.46
74218;BME280;62579;47.288;18.646;2023-04-08T08:29:50;100266.00;;;4.68;97.91
74218;BME280;62579;47.288;18.646;2023-04-08T08:32:16;100267.94;;;4.59;98.07
74218;BME280;62579;47.288;18.646;2023-04-08T08:34:41;100264.09;;;4.78;97.62
74218;BME280;62579;47.288;18.646;2023-04-08T08:37:06;100266.31;;;4.70;97.40
74218;BME280;62579;47.288;18.646;2023-04-08T08:39:31;100264.66;;;4.64;97.73
74218;BME280;62579;47.288;18.646;2023-04-08T08:41:57;100270.38;;;4.75;97.13
74218;BME280;62579;47.288;18.646;2023-04-08T08:44:22;100277.28;;;4.85;97.80
74218;BME280;62579;47.288;18.646;2023-04-08T08:46:48;100270.25;;;4.78;98.07
74218;BME280;62579;47.288;18.646;2023-04-08T08:49:13;100275.63;;;4.87;98.12
74218;BME280;62579;47.288;18.646;2023-04-08T08:51:39;100265.34;;;5.04;97.11
74218;BME280;62579;47.288;18.646;2023-04-08T08:54:05;100281.06;;;5.06;96.53
74218;BME280;62579;47.288;18.646;2023-04-08T08:56:34;100273.59;;;5.10;95.32
74218;BME280;62579;47.288;18.646;2023-04-08T08:58:59;100282.28;;;5.05;96.07
74218;BME280;62579;47.288;18.646;2023-04-08T09:01:31;100280.78;;;5.13;96.07
74218;BME280;62579;47.288;18.646;2023-04-08T09:06:39;100291.22;;;4.83;96.81
74218;BME280;62579;47.288;18.646;2023-04-08T09:09:05;100284.78;;;4.81;94.75
74218;BME280;62579;47.288;18.646;2023-04-08T09:11:34;100292.53;;;4.79;95.28
74218;BME280;62579;47.288;18.646;2023-04-08T09:13:59;100288.34;;;4.78;96.02
74218;BME280;62579;47.288;18.646;2023-04-08T09:16:24;100299.81;;;5.00;96.47
74218;BME280;62579;47.288;18.646;2023-04-08T09:18:50;100301.16;;;5.14;94.88
74218;BME280;62579;47.288;18.646;2023-04-08T09:21:16;100301.75;;;5.00;94.89
74218;BME280;62579;47.288;18.646;2023-04-08T09:23:43;100304.50;;;4.69;95.40
74218;BME280;62579;47.288;18.646;2023-04-08T09:26:09;100312.34;;;4.85;96.16
74218;BME280;62579;47.288;18.646;2023-04-08T09:28:34;100315.03;;;4.76;96.26
74218;BME280;62579;47.288;18.646;2023-04-08T09:31:00;100313.47;;;4.66;95.66
74218;BME280;62579;47.288;18.646;2023-04-08T09:33:31;100319.97;;;4.77;95.36
74218;BME280;62579;47.288;18.646;2023-04-08T09:35:56;100321.34;;;4.91;96.09
74218;BME280;62579;47.288;18.646;2023-04-08T09:38:23;100318.22;;;5.02;95.54
74218;BME280;62579;47.288;18.646;2023-04-08T09:40:48;100316.72;;;4.92;94.66
74218;BME280;62579;47.288;18.646;2023-04-08T09:43:14;100321.19;;;4.85;95.68
74218;BME280;62579;47.288;18.646;2023-04-08T09:45:44;100318.03;;;4.87;96.10
74218;BME280;62579;47.288;18.646;2023-04-08T09:48:17;100324.63;;;4.86;96.22
74218;BME280;62579;47.288;18.646;2023-04-08T09:50:48;100314.59;;;4.87;96.12
74218;BME280;62579;47.288;18.646;2023-04-08T09:53:23;100318.97;;;5.02;96.25
74218;BME280;62579;47.288;18.646;2023-04-08T09:55:52;100319.75;;;5.03;94.66
74218;BME280;62579;47.288;18.646;2023-04-08T09:58:20;100321.94;;;4.95;95.74
74218;BME280;62579;47.288;18.646;2023-04-08T10:00:54;100321.22;;;4.95;95.38
74218;BME280;62579;47.288;18.646;2023-04-08T10:03:31;100318.09;;;5.05;95.74
74218;BME280;62579;47.288;18.646;2023-04-08T10:06:00;100321.25;;;5.13;95.35
74218;BME280;62579;47.288;18.646;2023-04-08T10:08:25;100322.63;;;5.26;94.71
74218;BME280;62579;47.288;18.646;2023-04-08T10:10:51;100314.66;;;5.23;93.98
74218;BME280;62579;47.288;18.646;2023-04-08T10:13:16;100320.22;;;5.28;94.25
74218;BME280;62579;47.288;18.646;2023-04-08T10:15:44;100318.87;;;5.42;94.06
74218;BME280;62579;47.288;18.646;2023-04-08T10:23:03;100323.25;;;5.49;93.15
74218;BME280;62579;47.288;18.646;2023-04-08T10:25:30;100315.00;;;5.61;93.13
74218;BME280;62579;47.288;18.646;2023-04-08T10:27:55;100316.34;;;5.66;91.97
74218;BME280;62579;47.288;18.646;2023-04-08T10:32:53;100325.03;;;5.24;92.89
74218;BME280;62579;47.288;18.646;2023-04-08T10:36:20;100327.84;;;5.30;92.96
74218;BME280;62579;47.288;18.646;2023-04-08T10:38:15;100325.03;;;5.24;92.63
74218;BME280;62579;47.288;18.646;2023-04-08T10:40:42;100325.44;;;5.05;92.52
74218;BME280;62579;47.288;18.646;2023-04-08T10:43:11;100322.28;;;5.06;93.21
74218;BME280;62579;47.288;18.646;2023-04-08T10:45:40;100324.97;;;5.06;93.39
74218;BME280;62579;47.288;18.646;2023-04-08T10:48:12;100327.84;;;5.21;93.63
74218;BME280;62579;47.288;18.646;2023-04-08T10:50:37;100328.13;;;5.14;92.58
74218;BME280;62579;47.288;18.646;2023-04-08T10:53:02;100332.53;;;5.29;92.18
74218;BME280;62579;47.288;18.646;2023-04-08T10:55:28;100325.47;;;5.32;93.15
74218;BME280;62579;47.288;18.646;2023-04-08T10:57:55;100327.09;;;5.20;92.69
74218;BME280;62579;47.288;18.646;2023-04-08T11:00:32;100329.81;;;5.38;91.75
74218;BME280;62579;47.288;18.646;2023-04-08T11:03:05;100336.00;;;5.48;91.29
74218;BME280;62579;47.288;18.646;2023-04-08T11:05:31;100330.88;;;5.41;91.37
74218;BME280;62579;47.288;18.646;2023-04-08T11:07:58;100321.13;;;5.53;91.97
74218;BME280;62579;47.288;18.646;2023-04-08T11:10:24;100328.34;;;5.56;91.51
74218;BME280;62579;47.288;18.646;2023-04-08T11:12:50;100322.81;;;5.59;91.85
74218;BME280;62579;47.288;18.646;2023-04-08T11:15:18;100329.53;;;5.55;90.95
74218;BME280;62579;47.288;18.646;2023-04-08T11:17:43;100329.53;;;5.55;91.01
74218;BME280;62579;47.288;18.646;2023-04-08T11:20:08;100328.19;;;5.50;90.77
74218;BME280;62579;47.288;18.646;2023-04-08T11:22:35;100322.63;;;5.44;90.43
74218;BME280;62579;47.288;18.646;2023-04-08T11:25:00;100321.75;;;5.47;90.84
74218;BME280;62579;47.288;18.646;2023-04-08T11:27:25;100324.31;;;5.51;90.97
74218;BME280;62579;47.288;18.646;2023-04-08T11:29:52;100336.13;;;5.44;91.21
74218;BME280;62579;47.288;18.646;2023-04-08T11:32:17;100328.50;;;5.43;91.06
74218;BME280;62579;47.288;18.646;2023-04-08T11:34:43;100333.56;;;5.41;90.37
74218;BME280;62579;47.288;18.646;2023-04-08T11:37:08;100329.25;;;5.53;91.53
74218;BME280;62579;47.288;18.646;2023-04-08T11:39:35;100335.37;;;5.44;90.89
74218;BME280;62579;47.288;18.646;2023-04-08T11:42:04;100338.06;;;5.44;91.18
74218;BME280;62579;47.288;18.646;2023-04-08T11:44:30;100334.19;;;5.54;91.16
74218;BME280;62579;47.288;18.646;2023-04-08T11:46:56;100335.09;;;5.42;91.91
74218;BME280;62579;47.288;18.646;2023-04-08T11:49:22;100336.25;;;5.41;91.50
74218;BME280;62579;47.288;18.646;2023-04-08T11:51:54;100332.97;;;5.46;91.80
74218;BME280;62579;47.288;18.646;2023-04-08T11:54:27;100341.38;;;5.48;91.87
74218;BME280;62579;47.288;18.646;2023-04-08T11:56:53;100328.31;;;5.46;91.35
74218;BME280;62579;47.288;18.646;2023-04-08T11:59:18;100337.31;;;5.43;91.01
74218;BME280;62579;47.288;18.646;2023-04-08T12:01:43;100338.97;;;5.32;90.81
74218;BME280;62579;47.288;18.646;2023-04-08T12:04:09;100336.88;;;5.27;90.92
74218;BME280;62579;47.288;18.646;2023-04-08T12:06:34;100335.06;;;5.33;91.49
74218;BME280;62579;47.288;18.646;2023-04-08T12:09:00;100336.09;;;5.35;92.39
74218;BME280;62579;47.288;18.646;2023-04-08T12:11:25;100337.31;;;5.34;92.36
74218;BME280;62579;47.288;18.646;2023-04-08T12:13:50;100333.56;;;5.23;93.14
74218;BME280;62579;47.288;18.646;2023-04-08T12:16:16;100337.47;;;5.31;93.92
74218;BME280;62579;47.288;18.646;2023-04-08T12:18:41;100335.53;;;5.31;92.83
74218;BME280;62579;47.288;18.646;2023-04-08T12:21:07;100335.66;;;5.19;94.31
74218;BME280;62579;47.288;18.646;2023-04-08T12:23:32;100338.03;;;5.17;94.79
74218;BME280;62579;47.288;18.646;2023-04-08T12:25:57;100340.75;;;5.26;95.12
74218;BME280;62579;47.288;18.646;2023-04-08T12:28:23;100337.16;;;5.29;93.85
74218;BME280;62579;47.288;18.646;2023-04-08T12:30:48;100333.25;;;5.21;93.95
74218;BME280;62579;47.288;18.646;2023-04-08T12:33:13;100343.91;;;5.24;94.35
74218;BME280;62579;47.288;18.646;2023-04-08T12:35:39;100337.44;;;5.22;95.07
74218;BME280;62579;47.288;18.646;2023-04-08T12:38:04;100340.19;;;5.40;92.78
74218;BME280;62579;47.288;18.646;2023-04-08T12:40:30;100338.81;;;5.26;94.31
74218;BME280;62579;47.288;18.646;2023-04-08T12:42:55;100339.84;;;5.20;94.39
74218;BME280;62579;47.288;18.646;2023-04-08T12:45:20;100341.81;;;5.28;93.89
74218;BME280;62579;47.288;18.646;2023-04-08T12:47:45;100340.28;;;5.27;93.62
74218;BME280;62579;47.288;18.646;2023-04-08T12:50:10;100338.66;;;5.30;93.88
74218;BME280;62579;47.288;18.646;2023-04-08T12:52:36;100345.09;;;5.23;94.65
74218;BME280;62579;47.288;18.646;2023-04-08T12:55:01;100337.62;;;5.45;94.42
74218;BME280;62579;47.288;18.646;2023-04-08T12:57:26;100341.84;;;5.37;94.25